KDTO

Denton Enterprise Airport

Denton, Texas, USA
METAR KDTO 162153Z VRB03KT 10SM CLR 38/18 A2993 RMK AO2 SLP123 T03780178
Observed Flight Rules
Jul-16 @ 21:53 UTC (22 minutes ago) Visual Flight Rules
Wind Visibility Clouds
Variable at 3 knots 10 miles
  • Clear skies
Temperatures Readings
Current 38°C / 100°F
Dewpoint 18°C / 64°F
Humidity 31%
Altimeter 29.93" Hg
Pressure 1012.3 hPa
Elevation 196
METAR KDTO 162153Z VRB03KT 10SM CLR 38/18 A2993 RMK AO2 SLP123 T03780178
Observed Flight Rules
Jul-16 @ 21:53 UTC
(22 minutes ago)
VFR
Wind Visibility
Variable at 3 knots 10 miles
Clouds
  • Clear skies
Temperature Dewpoint
38°C / 100°F 18°C / 64°F
Humidity Altimeter Pressure
31% 29.93" Hg 1012.3 hPa